SAS4043 ENGM-ENZV
Flight info
| Callsign | SAS4043 |
|---|---|
| Flight time | 0h 41m |
| Altitude | 32000 |
| Route | ATLAP DCT IPMOD DCT ROPNO |
| Aircraft | A319/M-SDE3FGHIRWY/LB1 |
Departure
| Time | 2026-03-25 16:14 |
|---|---|
| Airport | Oslo-Gardermoen International Airport (ENGM) |
Arrival
| Time | 2026-03-25 16:56 |
|---|---|
| Airport | Stavanger Airport, Sola (ENZV) |
| Time | Latitude | Longitude | Altitude | Speed | Heading |
|---|---|---|---|---|---|
| 2026-03-25 15:48 | 60.19588 | 11.09194 | 687 ft | 0 kts | 195° |
| 2026-03-25 15:51 | 60.19592 | 11.09196 | 687 ft | 0 kts | 195° |
| 2026-03-25 15:51 | 60.19588 | 11.09194 | 691 ft | 0 kts | 195° |
| 2026-03-25 16:06 | 60.19594 | 11.09197 | 691 ft | 2 kts | 195° |
| 2026-03-25 16:06 | 60.19612 | 11.09208 | 689 ft | 3 kts | 195° |
| 2026-03-25 16:06 | 60.19632 | 11.09219 | 683 ft | 3 kts | 195° |
| 2026-03-25 16:07 | 60.19640 | 11.09224 | 683 ft | 0 kts | 195° |
| 2026-03-25 16:09 | 60.19632 | 11.09203 | 686 ft | 4 kts | 247° |
| 2026-03-25 16:09 | 60.19657 | 11.09159 | 688 ft | 6 kts | 337° |
| 2026-03-25 16:09 | 60.19705 | 11.09116 | 690 ft | 9 kts | 329° |
| 2026-03-25 16:10 | 60.19739 | 11.08994 | 683 ft | 13 kts | 284° |
| 2026-03-25 16:10 | 60.19766 | 11.08796 | 685 ft | 13 kts | 286° |
| 2026-03-25 16:10 | 60.19810 | 11.08697 | 682 ft | 12 kts | 354° |
| 2026-03-25 16:10 | 60.19898 | 11.08741 | 682 ft | 14 kts | 15° |
| 2026-03-25 16:11 | 60.20006 | 11.08802 | 680 ft | 18 kts | 15° |
| 2026-03-25 16:11 | 60.20130 | 11.08873 | 683 ft | 18 kts | 16° |
| 2026-03-25 16:11 | 60.20260 | 11.08948 | 683 ft | 21 kts | 16° |
| 2026-03-25 16:11 | 60.20408 | 11.09035 | 682 ft | 24 kts | 17° |
| 2026-03-25 16:12 | 60.20531 | 11.09112 | 684 ft | 12 kts | 17° |
| 2026-03-25 16:12 | 60.20607 | 11.09147 | 682 ft | 9 kts | 355° |
| 2026-03-25 16:12 | 60.20648 | 11.09036 | 680 ft | 11 kts | 289° |
| 2026-03-25 16:12 | 60.20670 | 11.08888 | 684 ft | 12 kts | 286° |
| 2026-03-25 16:13 | 60.20696 | 11.08709 | 684 ft | 11 kts | 285° |
| 2026-03-25 16:13 | 60.20661 | 11.08619 | 684 ft | 10 kts | 195° |
| 2026-03-25 16:13 | 60.20641 | 11.08609 | 683 ft | 10 kts | 195° |
| 2026-03-25 16:13 | 60.20382 | 11.08459 | 683 ft | 68 kts | 196° |
| 2026-03-25 16:14 | 60.19739 | 11.08089 | 683 ft | 123 kts | 196° |
| 2026-03-25 16:14 | 60.18748 | 11.07514 | 692 ft | 171 kts | 196° |
| 2026-03-25 16:14 | 60.17611 | 11.06804 | 1332 ft | 170 kts | 199° |
| 2026-03-25 16:14 | 60.16588 | 11.05697 | 2046 ft | 167 kts | 225° |
| 2026-03-25 16:15 | 60.15913 | 11.03836 | 2690 ft | 166 kts | 248° |
| 2026-03-25 16:15 | 60.15595 | 11.02407 | 3051 ft | 172 kts | 250° |
| 2026-03-25 16:15 | 60.15140 | 11.00231 | 3650 ft | 170 kts | 251° |
| 2026-03-25 16:15 | 60.14676 | 10.98023 | 4287 ft | 173 kts | 251° |
| 2026-03-25 16:16 | 60.14215 | 10.95772 | 4943 ft | 175 kts | 257° |
| 2026-03-25 16:16 | 60.14049 | 10.93399 | 5597 ft | 171 kts | 271° |
| 2026-03-25 16:16 | 60.13981 | 10.91015 | 6237 ft | 171 kts | 270° |
| 2026-03-25 16:16 | 60.13906 | 10.88634 | 6894 ft | 171 kts | 270° |
| 2026-03-25 16:17 | 60.13829 | 10.86190 | 7348 ft | 185 kts | 270° |
| 2026-03-25 16:17 | 60.13743 | 10.83456 | 7646 ft | 209 kts | 269° |
| 2026-03-25 16:17 | 60.13644 | 10.80368 | 8034 ft | 234 kts | 269° |
| 2026-03-25 16:17 | 60.13591 | 10.76942 | 8528 ft | 258 kts | 272° |
| 2026-03-25 16:18 | 60.13623 | 10.73234 | 9149 ft | 274 kts | 273° |
| 2026-03-25 16:18 | 60.13687 | 10.69252 | 9510 ft | 297 kts | 273° |
| 2026-03-25 16:18 | 60.13760 | 10.65018 | 10141 ft | 308 kts | 272° |
| 2026-03-25 16:18 | 60.13830 | 10.60685 | 10965 ft | 313 kts | 272° |
| 2026-03-25 16:19 | 60.13893 | 10.56312 | 11837 ft | 316 kts | 272° |
| 2026-03-25 16:19 | 60.13951 | 10.51875 | 12701 ft | 320 kts | 272° |
| 2026-03-25 16:19 | 60.14007 | 10.47386 | 13442 ft | 323 kts | 271° |
| 2026-03-25 16:19 | 60.14060 | 10.42847 | 14161 ft | 328 kts | 271° |
| 2026-03-25 16:20 | 60.14110 | 10.38247 | 14881 ft | 332 kts | 271° |
| 2026-03-25 16:20 | 60.14158 | 10.33587 | 15602 ft | 336 kts | 271° |
| 2026-03-25 16:20 | 60.14207 | 10.28861 | 16313 ft | 341 kts | 271° |
| 2026-03-25 16:20 | 60.14254 | 10.24081 | 17040 ft | 345 kts | 270° |
| 2026-03-25 16:21 | 60.14300 | 10.19244 | 17680 ft | 349 kts | 270° |
| 2026-03-25 16:21 | 60.14345 | 10.14349 | 18298 ft | 353 kts | 270° |
| 2026-03-25 16:21 | 60.14388 | 10.09398 | 18914 ft | 357 kts | 270° |
| 2026-03-25 16:21 | 60.14429 | 10.04384 | 19539 ft | 361 kts | 270° |
| 2026-03-25 16:22 | 60.14467 | 9.99320 | 20161 ft | 365 kts | 270° |
| 2026-03-25 16:22 | 60.14502 | 9.94198 | 20773 ft | 369 kts | 268° |
| 2026-03-25 16:22 | 60.14537 | 9.89022 | 21387 ft | 373 kts | 269° |
| 2026-03-25 16:22 | 60.14466 | 9.83796 | 21953 ft | 376 kts | 261° |
| 2026-03-25 16:23 | 60.13956 | 9.78646 | 22523 ft | 378 kts | 251° |
| 2026-03-25 16:23 | 60.12985 | 9.73744 | 23025 ft | 379 kts | 241° |
| 2026-03-25 16:23 | 60.11756 | 9.69050 | 23521 ft | 382 kts | 240° |
| 2026-03-25 16:23 | 60.10515 | 9.64311 | 23987 ft | 385 kts | 240° |
| 2026-03-25 16:24 | 60.09265 | 9.59524 | 24433 ft | 390 kts | 241° |
| 2026-03-25 16:24 | 60.08005 | 9.54689 | 24908 ft | 393 kts | 242° |
| 2026-03-25 16:24 | 60.06736 | 9.49829 | 25405 ft | 395 kts | 241° |
| 2026-03-25 16:24 | 60.05456 | 9.44926 | 25825 ft | 399 kts | 242° |
| 2026-03-25 16:25 | 60.04164 | 9.39987 | 26226 ft | 403 kts | 242° |
| 2026-03-25 16:25 | 60.02855 | 9.35013 | 26679 ft | 405 kts | 241° |
| 2026-03-25 16:25 | 60.01534 | 9.30012 | 26965 ft | 408 kts | 242° |
| 2026-03-25 16:25 | 60.00227 | 9.25079 | 27002 ft | 395 kts | 242° |
| 2026-03-25 16:26 | 59.98964 | 9.20325 | 27000 ft | 380 kts | 242° |
| 2026-03-25 16:26 | 59.97744 | 9.15738 | 27000 ft | 370 kts | 242° |
| 2026-03-25 16:26 | 59.96542 | 9.11231 | 27010 ft | 367 kts | 242° |
| 2026-03-25 16:27 | 59.94139 | 9.02239 | 27018 ft | 366 kts | 242° |
| 2026-03-25 16:27 | 59.92941 | 8.97765 | 27036 ft | 364 kts | 242° |
| 2026-03-25 16:27 | 59.91744 | 8.93305 | 27035 ft | 365 kts | 242° |
| 2026-03-25 16:27 | 59.90544 | 8.88843 | 27026 ft | 366 kts | 242° |
| 2026-03-25 16:28 | 59.89340 | 8.84373 | 27026 ft | 368 kts | 241° |
| 2026-03-25 16:28 | 59.88099 | 8.79809 | 27038 ft | 381 kts | 241° |
| 2026-03-25 16:28 | 59.86855 | 8.75215 | 27031 ft | 373 kts | 242° |
| 2026-03-25 16:28 | 59.85633 | 8.70692 | 27051 ft | 371 kts | 242° |
| 2026-03-25 16:29 | 59.84411 | 8.66189 | 27059 ft | 369 kts | 242° |
| 2026-03-25 16:29 | 59.83193 | 8.61710 | 27055 ft | 368 kts | 242° |
| 2026-03-25 16:29 | 59.81975 | 8.57240 | 27050 ft | 367 kts | 242° |
| 2026-03-25 16:29 | 59.80751 | 8.52751 | 26872 ft | 372 kts | 243° |
| 2026-03-25 16:30 | 59.79522 | 8.48263 | 26762 ft | 367 kts | 243° |
| 2026-03-25 16:30 | 59.78293 | 8.43786 | 27017 ft | 371 kts | 243° |
| 2026-03-25 16:30 | 59.77056 | 8.39287 | 27069 ft | 372 kts | 243° |
| 2026-03-25 16:30 | 59.75815 | 8.34780 | 27062 ft | 373 kts | 243° |
| 2026-03-25 16:31 | 59.74568 | 8.30270 | 27058 ft | 373 kts | 243° |
| 2026-03-25 16:31 | 59.73320 | 8.25769 | 27067 ft | 372 kts | 243° |
| 2026-03-25 16:31 | 59.72075 | 8.21276 | 27060 ft | 372 kts | 243° |
| 2026-03-25 16:31 | 59.70828 | 8.16767 | 27060 ft | 373 kts | 243° |
| 2026-03-25 16:32 | 59.69582 | 8.12264 | 27080 ft | 373 kts | 244° |
| 2026-03-25 16:32 | 59.68332 | 8.07771 | 27073 ft | 372 kts | 242° |
| 2026-03-25 16:32 | 59.67077 | 8.03285 | 27081 ft | 373 kts | 242° |
| 2026-03-25 16:32 | 59.65817 | 7.98794 | 27074 ft | 373 kts | 242° |
| 2026-03-25 16:33 | 59.64558 | 7.94309 | 27084 ft | 373 kts | 244° |
| 2026-03-25 16:33 | 59.63299 | 7.89825 | 27074 ft | 374 kts | 243° |
| 2026-03-25 16:33 | 59.62034 | 7.85329 | 27082 ft | 374 kts | 243° |
| 2026-03-25 16:33 | 59.60768 | 7.80832 | 27092 ft | 374 kts | 244° |
| 2026-03-25 16:34 | 59.59501 | 7.76331 | 26870 ft | 375 kts | 244° |
| 2026-03-25 16:34 | 59.58238 | 7.71862 | 26618 ft | 370 kts | 244° |
| 2026-03-25 16:34 | 59.56984 | 7.67457 | 26267 ft | 367 kts | 243° |
| 2026-03-25 16:34 | 59.55736 | 7.63088 | 25898 ft | 364 kts | 244° |
| 2026-03-25 16:35 | 59.54498 | 7.58753 | 25527 ft | 361 kts | 244° |
| 2026-03-25 16:35 | 59.53274 | 7.54463 | 25173 ft | 358 kts | 244° |
| 2026-03-25 16:35 | 59.52056 | 7.50204 | 24796 ft | 355 kts | 244° |
| 2026-03-25 16:35 | 59.50847 | 7.45982 | 24412 ft | 353 kts | 244° |
| 2026-03-25 16:36 | 59.49645 | 7.41794 | 24047 ft | 350 kts | 244° |
| 2026-03-25 16:36 | 59.48451 | 7.37636 | 23652 ft | 348 kts | 245° |
| 2026-03-25 16:36 | 59.47264 | 7.33512 | 23269 ft | 345 kts | 245° |
| 2026-03-25 16:36 | 59.46084 | 7.29418 | 22882 ft | 343 kts | 245° |
| 2026-03-25 16:37 | 59.44905 | 7.25342 | 22466 ft | 342 kts | 245° |
| 2026-03-25 16:37 | 59.43732 | 7.21296 | 22064 ft | 339 kts | 245° |
| 2026-03-25 16:37 | 59.42568 | 7.17296 | 21682 ft | 336 kts | 245° |
| 2026-03-25 16:37 | 59.41414 | 7.13334 | 21290 ft | 332 kts | 245° |
| 2026-03-25 16:38 | 59.40274 | 7.09415 | 20905 ft | 328 kts | 245° |
| 2026-03-25 16:38 | 59.39149 | 7.05545 | 20533 ft | 325 kts | 245° |
| 2026-03-25 16:38 | 59.38032 | 7.01707 | 20159 ft | 323 kts | 245° |
| 2026-03-25 16:38 | 59.36917 | 6.97898 | 19805 ft | 321 kts | 245° |
| 2026-03-25 16:39 | 59.35808 | 6.94120 | 19430 ft | 319 kts | 245° |
| 2026-03-25 16:39 | 59.34705 | 6.90365 | 19057 ft | 317 kts | 246° |
| 2026-03-25 16:39 | 59.33609 | 6.86627 | 18678 ft | 316 kts | 246° |
| 2026-03-25 16:39 | 59.32377 | 6.83048 | 18295 ft | 320 kts | 236° |
| 2026-03-25 16:40 | 59.30944 | 6.79726 | 17916 ft | 319 kts | 236° |
| 2026-03-25 16:40 | 59.29514 | 6.76420 | 17529 ft | 318 kts | 236° |
| 2026-03-25 16:40 | 59.28088 | 6.73127 | 17109 ft | 317 kts | 236° |
| 2026-03-25 16:40 | 59.26667 | 6.69850 | 16717 ft | 314 kts | 236° |
| 2026-03-25 16:41 | 59.25258 | 6.66601 | 16367 ft | 312 kts | 236° |
| 2026-03-25 16:41 | 59.23861 | 6.63378 | 15992 ft | 310 kts | 236° |
| 2026-03-25 16:41 | 59.22471 | 6.60177 | 15617 ft | 309 kts | 236° |
| 2026-03-25 16:41 | 59.21083 | 6.56989 | 15246 ft | 307 kts | 236° |
| 2026-03-25 16:42 | 59.19702 | 6.53826 | 14889 ft | 306 kts | 236° |
| 2026-03-25 16:42 | 59.18323 | 6.50678 | 14521 ft | 305 kts | 236° |
| 2026-03-25 16:42 | 59.16949 | 6.47545 | 14153 ft | 303 kts | 236° |
| 2026-03-25 16:42 | 59.15580 | 6.44427 | 13779 ft | 302 kts | 236° |
| 2026-03-25 16:43 | 59.14190 | 6.41357 | 13409 ft | 304 kts | 233° |
| 2026-03-25 16:43 | 59.12514 | 6.38754 | 13067 ft | 313 kts | 218° |
| 2026-03-25 16:43 | 59.10527 | 6.36798 | 12774 ft | 324 kts | 211° |
| 2026-03-25 16:43 | 59.08485 | 6.34975 | 12465 ft | 323 kts | 211° |
| 2026-03-25 16:44 | 59.06439 | 6.33153 | 12161 ft | 323 kts | 211° |
| 2026-03-25 16:44 | 59.04390 | 6.31330 | 11858 ft | 324 kts | 211° |
| 2026-03-25 16:44 | 59.02353 | 6.29514 | 11543 ft | 321 kts | 210° |
| 2026-03-25 16:45 | 58.98311 | 6.25909 | 10949 ft | 318 kts | 211° |
| 2026-03-25 16:45 | 58.96299 | 6.24111 | 10637 ft | 318 kts | 211° |
| 2026-03-25 16:45 | 58.94295 | 6.22320 | 10336 ft | 317 kts | 211° |
| 2026-03-25 16:45 | 58.92295 | 6.20538 | 10037 ft | 315 kts | 211° |
| 2026-03-25 16:46 | 58.90434 | 6.18393 | 9375 ft | 306 kts | 230° |
| 2026-03-25 16:46 | 58.89006 | 6.15478 | 8829 ft | 296 kts | 236° |
| 2026-03-25 16:46 | 58.87634 | 6.12548 | 8208 ft | 292 kts | 238° |
| 2026-03-25 16:46 | 58.86277 | 6.09655 | 7562 ft | 289 kts | 238° |
| 2026-03-25 16:47 | 58.84934 | 6.06787 | 6955 ft | 287 kts | 238° |
| 2026-03-25 16:47 | 58.83604 | 6.03957 | 6337 ft | 282 kts | 238° |
| 2026-03-25 16:47 | 58.82301 | 6.01182 | 5900 ft | 274 kts | 238° |
| 2026-03-25 16:47 | 58.81042 | 5.98518 | 5638 ft | 262 kts | 238° |
| 2026-03-25 16:48 | 58.79834 | 5.95961 | 5326 ft | 255 kts | 239° |
| 2026-03-25 16:48 | 58.78653 | 5.93453 | 5015 ft | 252 kts | 240° |
| 2026-03-25 16:48 | 58.77493 | 5.90991 | 4707 ft | 244 kts | 239° |
| 2026-03-25 16:48 | 58.76357 | 5.88589 | 4403 ft | 242 kts | 240° |
| 2026-03-25 16:49 | 58.75229 | 5.86189 | 4100 ft | 242 kts | 240° |
| 2026-03-25 16:49 | 58.74096 | 5.83766 | 3787 ft | 246 kts | 240° |
| 2026-03-25 16:49 | 58.72946 | 5.81303 | 3461 ft | 247 kts | 241° |
| 2026-03-25 16:49 | 58.72056 | 5.78646 | 3177 ft | 228 kts | 259° |
| 2026-03-25 16:50 | 58.71651 | 5.75857 | 3008 ft | 205 kts | 275° |
| 2026-03-25 16:50 | 58.71641 | 5.73283 | 2990 ft | 181 kts | 289° |
| 2026-03-25 16:50 | 58.71907 | 5.71072 | 2982 ft | 159 kts | 300° |
| 2026-03-25 16:50 | 58.72265 | 5.69121 | 2990 ft | 152 kts | 300° |
| 2026-03-25 16:51 | 58.72609 | 5.67227 | 2989 ft | 149 kts | 300° |
| 2026-03-25 16:51 | 58.73104 | 5.65547 | 2827 ft | 140 kts | 319° |
| 2026-03-25 16:51 | 58.73885 | 5.64494 | 2680 ft | 137 kts | 337° |
| 2026-03-25 16:51 | 58.74831 | 5.64168 | 2531 ft | 141 kts | 353° |
| 2026-03-25 16:52 | 58.75806 | 5.64143 | 2388 ft | 138 kts | 352° |
| 2026-03-25 16:52 | 58.76753 | 5.64115 | 2166 ft | 134 kts | 351° |
| 2026-03-25 16:52 | 58.77648 | 5.64090 | 1967 ft | 124 kts | 350° |
| 2026-03-25 16:52 | 58.78475 | 5.64067 | 1822 ft | 115 kts | 349° |
| 2026-03-25 16:53 | 58.79262 | 5.64041 | 1657 ft | 112 kts | 349° |
| 2026-03-25 16:53 | 58.80035 | 5.64016 | 1501 ft | 111 kts | 348° |
| 2026-03-25 16:53 | 58.80807 | 5.63992 | 1340 ft | 110 kts | 348° |
| 2026-03-25 16:53 | 58.81585 | 5.63967 | 1189 ft | 112 kts | 348° |
| 2026-03-25 16:54 | 58.82361 | 5.63943 | 1028 ft | 112 kts | 348° |
| 2026-03-25 16:54 | 58.83138 | 5.63919 | 847 ft | 113 kts | 349° |
| 2026-03-25 16:54 | 58.83944 | 5.63886 | 743 ft | 115 kts | 348° |
| 2026-03-25 16:54 | 58.84750 | 5.63893 | 563 ft | 111 kts | 347° |
| 2026-03-25 16:55 | 58.85512 | 5.63887 | 316 ft | 113 kts | 349° |
| 2026-03-25 16:55 | 58.86305 | 5.63854 | 252 ft | 116 kts | 350° |
| 2026-03-25 16:55 | 58.87158 | 5.63793 | 91 ft | 128 kts | 353° |
| 2026-03-25 16:55 | 58.87959 | 5.63764 | 38 ft | 92 kts | 357° |
| 2026-03-25 16:56 | 58.88426 | 5.63765 | 37 ft | 42 kts | 359° |
| 2026-03-25 16:56 | 58.88570 | 5.63759 | 33 ft | 29 kts | 358° |
| 2026-03-25 16:56 | 58.88720 | 5.63746 | 31 ft | 15 kts | 357° |
| 2026-03-25 16:56 | 58.88842 | 5.63738 | 27 ft | 14 kts | 358° |
| 2026-03-25 16:57 | 58.88903 | 5.63789 | 28 ft | 8 kts | 3° |
| 2026-03-25 16:57 | 58.88882 | 5.63730 | 28 ft | 12 kts | 184° |
| 2026-03-25 16:57 | 58.88776 | 5.63748 | 29 ft | 13 kts | 175° |
| 2026-03-25 16:57 | 58.88723 | 5.63708 | 29 ft | 9 kts | 229° |
| 2026-03-25 16:58 | 58.88713 | 5.63575 | 31 ft | 12 kts | 270° |
| 2026-03-25 16:58 | 58.88675 | 5.63427 | 31 ft | 14 kts | 201° |
| 2026-03-25 16:58 | 58.88583 | 5.63418 | 32 ft | 13 kts | 178° |
| 2026-03-25 16:58 | 58.88492 | 5.63424 | 33 ft | 13 kts | 178° |
| 2026-03-25 16:59 | 58.88400 | 5.63428 | 34 ft | 13 kts | 180° |
| 2026-03-25 16:59 | 58.88318 | 5.63426 | 35 ft | 10 kts | 183° |
| 2026-03-25 16:59 | 58.88278 | 5.63340 | 35 ft | 9 kts | 243° |
| 2026-03-25 16:59 | 58.88259 | 5.63224 | 33 ft | 9 kts | 255° |
| 2026-03-25 17:00 | 58.88246 | 5.63141 | 35 ft | 3 kts | 254° |
| 2026-03-25 17:00 | 58.88241 | 5.63102 | 34 ft | 1 kts | 255° |
| 2026-03-25 17:00 | 58.88241 | 5.63101 | 36 ft | 0 kts | 255° |